Terminal Aerodrome Forecast
Issued by NWS

Home | Current Version | Previous Version | Text Only | Print | Product List | Glossary On
Versions: 1 2 3 4 5 6 7 8 9 10 11 12 13 14 15 16 17 18 19 20
472
FTPA31 PHFO 052324
TAFHLI
TAF
PHLI 052324Z 0600/0624 11008KT P6SM SCT025 SCT050
     FM060600 24006KT P6SM SCT025 BKN050
     FM062000 21008KT P6SM VCSH SCT025 BKN050=

USA.gov is the U.S. government's official web portal to all federal, state and local government web resources and services.